« ### RJNT log 201911 ### | トップページ | 懐古:十勝から 帯広空港他 2001/7/23 mon »

2019/12/03

定点 富山空港 2019/12/3 tue

久しぶりの定点。冬近しで、一日冷たい雨の日。

RJNT 022300Z 17004KT 120V210 9999 -SHRA FEW010 SCT020 BKN030 07/05 Q1017

20191203_rjnt_00ja79an

ANA313 RJTT-RJNT JA79AN B737-881

RJNT 030000Z VRB02KT 9999 -SHRA FEW010 SCT020 BKN030 07/05 Q1018

20191203_rjnt_01ja79an

20191203_rjnt_02ja79an

ANA316 RJNT-RJTT JA79AN B737-881

RJNT 030100Z 16005KT 090V200 8000 -SHRA FEW010 SCT020 BKN030 07/05 Q1018

20191203_rjnt_03ja89an

羽衣を引いていますが、強くはありません。

20191203_rjnt_04ja89an

右からの横風で、ウイングロー

20191203_rjnt_05ja89an

ANA315 RJTT-RJNT JA89AN B737-8AL

RJNT 030200Z 21008KT 140V320 9000 -SHRA FEW010 SCT020 BKN030 08/04 Q1017

20191203_rjnt_06kouen

公園にはイノシシ出現

20191203_rjnt_07ja89an

雨は、みぞれっぽい

20191203_rjnt_08ja89an

20191203_rjnt_09ja89an

20191203_rjnt_10ja89an

ANA1181 RJNT-RJCC JA89AN B737-8AL

20191203_rjnt_11ja89an

冬空の様で、ところどころに青空スポットも

20191203_rjnt_12xmas

今年も廻るサンタに、屋上にあった立て看が・・

RJNT 030300Z 21009KT 180V250 9999 -SHRA FEW010 SCT025 BKN050 09/05 Q1017

20191203_rjnt_13b5260

20191203_rjnt_14b5260

CSH825 ZSPD-RJNT B-5260 B737-76D

RJNT 030500Z 22009KT 9999 -SHRA FEW005 BKN020 07/05 Q1018

20191203_rjnt_15b5260

20191203_rjnt_16b5260

20191203_rjnt_17b5260

CSH826 RJNT-ZSPD B-5260 B737-76D

20191203_rjnt_18b5260

今年もあと少し。ラストスパート。

|

« ### RJNT log 201911 ### | トップページ | 懐古:十勝から 帯広空港他 2001/7/23 mon »

富山空港」カテゴリの記事

コメント

コメントを書く



(ウェブ上には掲載しません)


コメントは記事投稿者が公開するまで表示されません。



« ### RJNT log 201911 ### | トップページ | 懐古:十勝から 帯広空港他 2001/7/23 mon »